Terminal Aerodrome Forecast
Issued by NWS Wilmington, OH

Current Version | Previous Version | Graphics & Text | Print | Product List | Glossary On
Versions: 1 2 3 4 5 6 7 8 9 10 11 12 13 14 15 16 17 18 19 20 21 22 23 24 25 26
733
FTUS41 KILN 151731
TAFCVG
TAF
KCVG 151731Z 1518/1624 20010G16KT 1SM -SN OVC012
      TEMPO 1521/1524 OVC008
     FM160000 24006KT P6SM VCSH OVC012
     FM160300 28008KT P6SM VCSH OVC022
     FM160500 28008KT P6SM SCT022 BKN050
     FM161500 26007KT P6SM BKN022=

USA.gov is the U.S. government's official web portal to all federal, state and local government web resources and services.